Airfield :
LOGIN :

Register | Disclaimer

   EN    FR    IT 

 










Legend :    VFR   Marginal VFR   IFR   Intensive IFR   Very Intensive IFR
Visi :
Ceiling :
>= 8 km
>= 3000ft
5 to 8 km
1000 to 3000 ft
1500m to 5 km
500 to 1000 ft
800 to 1500m
200 to 500 ft
< 800m
< 200 ft
Symbols :   Thunderstorms  Fog  Heavy snow  Heavy precipitations  Wind > 20 kt
SIGMETs :     Misc.  Thunderstorms  Icing  Turbulence  Mountain Waves  Volcanic Ashes







- Airport Elevation : 458 ft
- Download approach charts


LFSI - St-Dizier

CURRENT METAR :
  • 102330Z AUTO 26003KT CAVOK 04/03 Q1026

EXPIRED METARs :
  • 102300Z AUTO 22002KT 9999 FEW045/// BKN052/// ///TCU 05/03 Q1026
  • 102230Z AUTO 32002KT 9999 FEW007/// SCT034/// OVC043/// ///TCU 05/03 Q1026
  • 102200Z AUTO VRB03KT 9999 DZ FEW011/// BKN016/// BKN023/// ///TCU 06/04 Q1026
  • 102130Z AUTO 27004KT 9999 BKN017/// BKN023/// OVC050/// ///TCU 06/04 Q1026
  • 102100Z AUTO 28003KT 9999 SCT016/// BKN027/// OVC034/// ///TCU 06/04 Q1026

TAF TAF LFSI
Valid from the 10 at 21:00 until the 11 at 21:00 UTC


102000Z 1021/1121 26005KT 9999 BKN025
BECMG 1021/1023 3000 BR BKN008
PROB30 1104/1109 0800 BCFG OVC003
BECMG 1111/1113 8000 NSW SCT015
No reported NOTAMs for that airfield.



MET'MAP, your aeronautical weather chart ! - Copyright ORBIFLY December 2007 - Disclaimer

ORBIFLY MET'MAP TEAM :

Programming & Development : Alexandra Zaïnal
Concept & Development : Baudouin d'Aumeries
Co-Development & Prog : Marc-Olivier Méhu
Technical & hardware support : Manuel Goepfert

Contact : metmap@orbifly.com




SOURCES & CREDITS :

   NOAA